Time;durP1;ratioP1;P1;durP2;ratioP2;P2;SDS_P1;SDS_P2;PMS_P1;PMS_P2;Temp;Humidity;BMP_temperature;BMP_pressure;BME280_temperature;BME280_humidity;BME280_pressure;Samples;Min_cycle;Max_cycle;Signal;HPM_P1;HPM_P2
2023/12/06 00:01:53;;;;;;;73.90;38.60;;;;;;;-4.14;86.10;100212.64;102998;1257;97810;-72
2023/12/06 00:04:20;;;;;;;73.40;38.90;;;;;;;-4.10;85.96;100212.95;102222;1257;1002645;-72
2023/12/06 00:06:47;;;;;;;76.70;41.10;;;;;;;-4.09;85.91;100213.51;103046;1260;108277;-71
2023/12/06 00:09:14;;;;;;;79.70;41.80;;;;;;;-4.07;85.63;100214.05;102909;1257;138275;-71
2023/12/06 00:11:42;;;;;;;82.50;43.30;;;;;;;-4.05;85.58;100218.67;103121;1256;105645;-72
2023/12/06 00:14:09;;;;;;;82.10;40.80;;;;;;;-4.07;85.44;100217.45;102360;1256;1003055;-72
2023/12/06 00:16:38;;;;;;;79.30;41.90;;;;;;;-4.08;85.68;100220.14;102958;1256;141435;-72
2023/12/06 00:19:05;;;;;;;73.10;39.20;;;;;;;-4.09;85.38;100226.73;102427;1260;1002920;-70
2023/12/06 00:21:32;;;;;;;76.50;40.10;;;;;;;-4.07;85.68;100227.98;102251;1256;1002974;-74
2023/12/06 00:23:59;;;;;;;74.50;40.30;;;;;;;-4.04;85.79;100227.20;103051;1256;106930;-71
2023/12/06 00:26:26;;;;;;;77.60;40.40;;;;;;;-4.00;85.57;100224.07;102338;1256;1003668;-72
2023/12/06 00:28:53;;;;;;;77.90;39.90;;;;;;;-3.99;85.58;100220.20;102859;1262;139219;-71
2023/12/06 00:31:20;;;;;;;70.40;38.70;;;;;;;-3.94;85.24;100222.02;103057;1259;107859;-71
2023/12/06 00:33:47;;;;;;;72.00;39.30;;;;;;;-3.91;85.22;100219.73;102910;1256;138314;-71
2023/12/06 00:36:14;;;;;;;83.50;41.40;;;;;;;-3.89;85.37;100222.83;102332;1256;1003061;-72
2023/12/06 00:38:40;;;;;;;82.10;42.90;;;;;;;-3.92;85.46;100214.80;103016;1256;97695;-71
2023/12/06 00:41:07;;;;;;;87.90;44.60;;;;;;;-3.93;85.48;100216.27;103001;1256;137791;-72
2023/12/06 00:43:34;;;;;;;79.80;41.00;;;;;;;-3.97;85.25;100220.39;102961;1261;107454;-73
2023/12/06 00:46:01;;;;;;;77.40;39.60;;;;;;;-4.00;85.66;100219.50;103034;1256;139013;-72
2023/12/06 00:48:28;;;;;;;75.60;39.20;;;;;;;-3.99;85.54;100219.50;101553;1257;1003045;-72
2023/12/06 00:50:55;;;;;;;75.00;38.90;;;;;;;-3.99;85.75;100225.98;103053;1256;97688;-72
2023/12/06 00:53:22;;;;;;;73.10;37.20;;;;;;;-3.98;85.75;100227.86;102925;1260;138292;-72
2023/12/06 00:55:48;;;;;;;80.70;39.00;;;;;;;-4.04;85.92;100214.98;102360;1256;1003212;-71
2023/12/06 00:58:15;;;;;;;81.40;41.00;;;;;;;-3.95;85.75;100229.81;102290;1256;1003489;-71
2023/12/06 01:00:42;;;;;;;81.90;41.70;;;;;;;-3.95;86.01;100231.02;102324;1257;1002625;-72
2023/12/06 01:03:09;;;;;;;89.40;43.30;;;;;;;-3.96;86.28;100241.67;102162;1260;1003446;-71
2023/12/06 01:05:36;;;;;;;82.90;42.50;;;;;;;-4.00;85.77;100231.72;103168;1256;111423;-71
2023/12/06 01:08:03;;;;;;;80.90;41.70;;;;;;;-4.01;86.36;100228.29;103113;1255;109203;-72
2023/12/06 01:10:30;;;;;;;79.00;39.80;;;;;;;-4.05;86.50;100231.43;103033;1257;138751;-71
2023/12/06 01:12:56;;;;;;;78.20;40.40;;;;;;;-4.07;86.53;100236.46;103112;1260;108229;-71
2023/12/06 01:15:24;;;;;;;82.10;40.50;;;;;;;-4.07;86.27;100241.39;102945;1256;139670;-72
2023/12/06 01:17:52;;;;;;;80.40;40.40;;;;;;;-4.09;86.48;100244.06;102394;1259;1002965;-71
2023/12/06 01:20:19;;;;;;;75.70;39.70;;;;;;;-4.11;86.75;100240.09;102355;1259;1002641;-72
2023/12/06 01:22:46;;;;;;;72.20;38.10;;;;;;;-4.13;86.94;100242.23;102954;1259;138931;-72
2023/12/06 01:25:12;;;;;;;79.90;39.20;;;;;;;-4.15;87.20;100242.51;103137;1256;106637;-73
2023/12/06 01:27:39;;;;;;;73.40;38.10;;;;;;;-4.13;87.27;100245.30;103010;1256;140161;-72
2023/12/06 01:30:08;;;;;;;77.30;39.30;;;;;;;-4.11;87.16;100240.79;103100;1260;110744;-72
2023/12/06 01:32:38;;;;;;;78.50;40.30;;;;;;;-4.07;87.04;100237.31;103716;1256;1002958;-72
2023/12/06 01:35:07;;;;;;;74.80;38.20;;;;;;;-4.04;87.19;100230.77;103496;1260;139108;-71
2023/12/06 01:37:34;;;;;;;78.50;39.90;;;;;;;-4.00;87.22;100232.05;103284;1256;107325;-72
2023/12/06 01:40:01;;;;;;;76.50;38.50;;;;;;;-3.97;87.27;100235.54;103024;1256;142538;-72
2023/12/06 01:42:29;;;;;;;91.70;43.30;;;;;;;-3.91;86.90;100233.83;103141;1259;110379;-72
2023/12/06 01:44:55;;;;;;;78.50;41.10;;;;;;;-3.86;87.11;100236.84;103001;1257;107822;-71
2023/12/06 01:47:25;;;;;;;84.50;41.60;;;;;;;-3.83;86.85;100235.90;102996;1257;137984;-73
2023/12/06 01:49:53;;;;;;;84.00;42.80;;;;;;;-3.79;86.70;100238.38;103053;1260;107209;-71
2023/12/06 01:52:20;;;;;;;80.80;38.90;;;;;;;-3.76;86.93;100238.96;102941;1256;137981;-71
2023/12/06 01:54:48;;;;;;;80.20;40.10;;;;;;;-3.74;86.77;100240.73;101640;1256;1003199;-72
2023/12/06 01:57:15;;;;;;;75.90;38.50;;;;;;;-3.77;87.06;100239.28;102972;1257;139002;-71
2023/12/06 01:59:44;;;;;;;75.60;38.20;;;;;;;-3.78;86.99;100237.20;102308;1261;1003118;-72
2023/12/06 02:02:13;;;;;;;73.90;37.80;;;;;;;-3.76;86.99;100241.70;103060;1256;106743;-72
2023/12/06 02:04:41;;;;;;;78.70;39.40;;;;;;;-3.76;86.81;100242.05;103032;1256;138744;-72
2023/12/06 02:07:08;;;;;;;72.10;37.50;;;;;;;-3.74;86.71;100237.66;103153;1259;110956;-72
2023/12/06 02:09:35;;;;;;;78.50;38.00;;;;;;;-3.75;86.72;100239.69;101562;1259;1003730;-72
2023/12/06 02:12:02;;;;;;;78.50;38.90;;;;;;;-3.73;87.11;100245.17;103163;1256;97678;-73
2023/12/06 02:14:33;;;;;;;78.00;39.10;;;;;;;-3.72;86.91;100244.52;103174;1259;108063;-71
2023/12/06 02:17:00;;;;;;;77.20;38.60;;;;;;;-3.71;87.05;100240.80;103042;1256;138637;-71
2023/12/06 02:19:29;;;;;;;77.00;39.60;;;;;;;-3.69;86.74;100245.09;102364;1260;1002853;-70
2023/12/06 02:21:58;;;;;;;80.70;39.00;;;;;;;-3.66;86.97;100248.73;101474;1256;1003297;-71
2023/12/06 02:24:30;;;;;;;72.30;37.80;;;;;;;-3.64;86.69;100251.30;103149;1259;97788;-72
2023/12/06 02:26:57;;;;;;;73.80;36.30;;;;;;;-3.59;86.71;100247.56;103165;1256;107719;-72
2023/12/06 02:29:24;;;;;;;74.30;39.60;;;;;;;-3.57;86.89;100247.61;103011;1256;138722;-72
2023/12/06 02:31:51;;;;;;;80.90;40.00;;;;;;;-3.55;86.62;100242.20;102320;1259;1003560;-71
2023/12/06 02:34:21;;;;;;;79.40;39.30;;;;;;;-3.54;86.72;100239.34;102992;1260;138157;-72
2023/12/06 02:36:53;;;;;;;81.00;41.20;;;;;;;-3.55;86.76;100240.86;103128;1256;97782;-72
2023/12/06 02:39:20;;;;;;;81.60;41.90;;;;;;;-3.60;86.75;100233.23;103034;1256;139191;-72
2023/12/06 02:41:47;;;;;;;73.90;38.40;;;;;;;-3.60;86.48;100228.45;103132;1259;97800;-71
2023/12/06 02:44:14;;;;;;;79.80;39.40;;;;;;;-3.64;86.97;100229.05;103145;1260;110274;-72
2023/12/06 02:46:41;;;;;;;76.80;39.20;;;;;;;-3.68;86.56;100228.30;103234;1256;138744;-72
2023/12/06 02:49:08;;;;;;;74.70;37.70;;;;;;;-3.67;87.26;100231.89;103149;1257;97858;-72
2023/12/06 02:51:35;;;;;;;73.00;37.30;;;;;;;-3.66;87.13;100236.34;103001;1257;139465;-72
2023/12/06 02:54:02;;;;;;;75.90;37.70;;;;;;;-3.67;87.36;100243.11;102386;1256;1003645;-72
2023/12/06 02:56:29;;;;;;;72.00;37.90;;;;;;;-3.65;86.81;100243.64;102427;1257;1002963;-72
2023/12/06 02:58:56;;;;;;;77.10;38.80;;;;;;;-3.65;87.06;100240.44;102931;1256;138803;-72
2023/12/06 03:01:23;;;;;;;75.20;37.60;;;;;;;-3.62;87.52;100250.35;103011;1256;97821;-72
2023/12/06 03:03:50;;;;;;;74.20;38.30;;;;;;;-3.60;86.95;100253.11;102888;1257;139686;-72
2023/12/06 03:06:17;;;;;;;72.70;37.00;;;;;;;-3.56;87.09;100252.89;103028;1260;97992;-72
2023/12/06 03:08:43;;;;;;;70.00;36.60;;;;;;;-3.54;87.38;100263.98;103083;1256;111577;-72
2023/12/06 03:11:10;;;;;;;71.30;36.80;;;;;;;-3.59;86.77;100262.33;102975;1256;138929;-72
2023/12/06 03:13:37;;;;;;;66.80;35.70;;;;;;;-3.63;86.86;100256.44;102364;1259;1002911;-72
2023/12/06 03:16:05;;;;;;;66.60;35.40;;;;;;;-3.70;87.29;100259.86;101451;1258;1003542;-72
2023/12/06 03:18:32;;;;;;;70.50;35.60;;;;;;;-3.76;87.23;100250.86;103076;1256;97801;-72
2023/12/06 03:20:59;;;;;;;63.30;34.40;;;;;;;-3.80;87.72;100260.09;102324;1259;1003012;-71
2023/12/06 03:23:26;;;;;;;63.00;33.70;;;;;;;-3.84;87.58;100255.23;102248;1256;1003034;-73
2023/12/06 03:25:52;;;;;;;65.60;34.70;;;;;;;-3.83;87.58;100254.39;102314;1256;1003519;-72
2023/12/06 03:28:19;;;;;;;65.90;36.00;;;;;;;-3.79;87.33;100249.42;103141;1257;139200;-71
2023/12/06 03:30:46;;;;;;;68.40;36.80;;;;;;;-3.74;87.32;100249.89;102354;1256;1003523;-70
2023/12/06 03:33:13;;;;;;;60.20;34.40;;;;;;;-3.74;87.67;100252.94;102198;1259;1003427;-71
2023/12/06 03:35:40;;;;;;;66.80;35.20;;;;;;;-3.77;87.47;100253.38;103079;1261;106747;-71
2023/12/06 03:38:07;;;;;;;62.90;33.20;;;;;;;-3.83;87.44;100262.57;103072;1256;97778;-71
2023/12/06 03:40:34;;;;;;;67.20;35.30;;;;;;;-3.87;87.51;100253.80;102255;1259;1002674;-71
2023/12/06 03:43:01;;;;;;;68.00;35.50;;;;;;;-3.90;87.55;100258.65;103024;1260;98112;-71
2023/12/06 03:45:28;;;;;;;66.60;34.50;;;;;;;-3.92;87.96;100257.42;102938;1260;138631;-70
2023/12/06 03:47:54;;;;;;;67.10;34.90;;;;;;;-3.94;88.03;100257.87;102285;1259;1003186;-71
2023/12/06 03:50:21;;;;;;;69.00;35.50;;;;;;;-3.89;88.11;100255.09;103071;1259;98374;-71
2023/12/06 03:52:48;;;;;;;73.70;37.20;;;;;;;-3.85;88.11;100254.35;102935;1257;138944;-70
2023/12/06 03:55:15;;;;;;;64.90;34.60;;;;;;;-3.82;88.05;100251.38;103052;1256;97966;-72
2023/12/06 03:57:42;;;;;;;69.00;36.10;;;;;;;-3.78;87.79;100251.48;102265;1259;1002691;-71
2023/12/06 04:00:11;;;;;;;68.40;35.80;;;;;;;-3.74;87.85;100246.50;102324;1260;1002588;-71
2023/12/06 04:02:38;;;;;;;65.10;35.50;;;;;;;-3.69;88.10;100246.77;103486;1256;96453;-72
2023/12/06 04:05:08;;;;;;;69.70;36.40;;;;;;;-3.70;87.75;100241.84;102258;1257;1003280;-72
2023/12/06 04:07:34;;;;;;;61.40;33.80;;;;;;;-3.71;88.20;100246.23;102894;1256;97874;-71
2023/12/06 04:10:01;;;;;;;65.00;34.70;;;;;;;-3.74;87.80;100246.49;102962;1256;138116;-72
2023/12/06 04:12:28;;;;;;;70.30;37.50;;;;;;;-3.78;87.89;100251.30;103080;1256;107573;-71
2023/12/06 04:14:55;;;;;;;65.70;37.10;;;;;;;-3.78;87.77;100256.92;103093;1256;97757;-71
2023/12/06 04:17:22;;;;;;;62.80;32.70;;;;;;;-3.78;87.54;100253.16;102907;1259;138089;-71
2023/12/06 04:19:49;;;;;;;58.10;32.40;;;;;;;-3.81;87.69;100253.59;103076;1256;97792;-73
2023/12/06 04:22:16;;;;;;;54.90;29.60;;;;;;;-3.85;87.42;100249.77;102150;1256;1002863;-73
2023/12/06 04:24:43;;;;;;;54.00;29.30;;;;;;;-3.88;87.68;100254.97;102997;1256;107319;-72
2023/12/06 04:27:10;;;;;;;57.20;30.70;;;;;;;-3.87;87.37;100253.13;102910;1259;139756;-71
2023/12/06 04:29:36;;;;;;;54.50;30.80;;;;;;;-3.82;87.51;100251.73;102313;1261;1002987;-72
2023/12/06 04:32:04;;;;;;;58.40;32.70;;;;;;;-3.78;87.42;100249.97;102998;1261;97788;-72
2023/12/06 04:34:34;;;;;;;61.20;33.80;;;;;;;-3.75;87.05;100254.11;102223;1256;1002991;-71
2023/12/06 04:37:01;;;;;;;60.50;33.50;;;;;;;-3.75;87.27;100248.01;102301;1256;1002944;-72
2023/12/06 04:39:27;;;;;;;62.60;33.60;;;;;;;-3.76;87.17;100248.16;102183;1259;1002457;-72
2023/12/06 04:41:54;;;;;;;51.80;30.50;;;;;;;-3.79;86.85;100248.56;102957;1261;106718;-72
2023/12/06 04:44:21;;;;;;;57.10;31.40;;;;;;;-3.83;86.72;100249.30;102989;1256;97681;-73
2023/12/06 04:46:50;;;;;;;53.70;30.00;;;;;;;-3.82;87.04;100251.70;102904;1261;139106;-73
2023/12/06 04:49:17;;;;;;;55.70;31.10;;;;;;;-3.82;86.88;100253.77;101520;1256;1003678;-72
2023/12/06 04:51:44;;;;;;;54.70;31.20;;;;;;;-3.79;87.27;100252.48;103001;1256;139995;-72
2023/12/06 04:54:11;;;;;;;52.20;29.10;;;;;;;-3.76;87.23;100260.91;103049;1256;107743;-72
2023/12/06 04:56:38;;;;;;;53.60;29.80;;;;;;;-3.76;87.08;100258.35;103053;1260;97821;-71
2023/12/06 04:59:04;;;;;;;53.50;29.00;;;;;;;-3.77;86.52;100259.02;102927;1256;138636;-72
2023/12/06 05:01:32;;;;;;;51.60;28.80;;;;;;;-3.79;86.91;100257.05;103034;1256;107647;-71
2023/12/06 05:03:59;;;;;;;51.80;28.20;;;;;;;-3.85;86.73;100255.37;103022;1256;139253;-72
2023/12/06 05:06:27;;;;;;;51.00;28.60;;;;;;;-3.88;86.34;100250.71;103055;1256;107698;-71
2023/12/06 05:08:54;;;;;;;51.80;28.50;;;;;;;-3.87;86.84;100249.38;102312;1256;1003476;-72
2023/12/06 05:11:24;;;;;;;55.40;31.40;;;;;;;-3.88;86.96;100244.95;101489;1256;1003413;-71
2023/12/06 05:13:51;;;;;;;55.30;31.10;;;;;;;-3.89;86.90;100238.98;103048;1260;107874;-71
2023/12/06 05:16:18;;;;;;;58.80;31.90;;;;;;;-3.89;86.71;100234.21;102981;1261;138789;-71
2023/12/06 05:18:45;;;;;;;58.50;33.00;;;;;;;-3.92;87.29;100231.95;103075;1262;108438;-72
2023/12/06 05:21:12;;;;;;;54.80;30.30;;;;;;;-3.91;87.04;100237.06;103932;1262;138966;-71
2023/12/06 05:23:39;;;;;;;54.30;29.60;;;;;;;-3.90;86.91;100234.70;103099;1256;111148;-73
2023/12/06 05:26:06;;;;;;;48.90;28.00;;;;;;;-3.85;87.15;100231.77;102274;1256;1003018;-71
2023/12/06 05:28:33;;;;;;;50.20;26.90;;;;;;;-3.80;86.91;100225.60;102976;1256;139078;-72
2023/12/06 05:31:00;;;;;;;46.10;28.50;;;;;;;-3.72;86.99;100225.14;103061;1260;106991;-72
2023/12/06 05:33:27;;;;;;;52.10;29.00;;;;;;;-3.67;86.82;100228.47;102814;1256;139045;-71
2023/12/06 05:35:55;;;;;;;54.80;30.80;;;;;;;-3.68;86.85;100224.89;103090;1256;112578;-73
2023/12/06 05:38:22;;;;;;;52.30;29.70;;;;;;;-3.72;86.49;100237.89;103038;1256;105506;-73
2023/12/06 05:40:50;;;;;;;54.50;29.30;;;;;;;-3.76;86.59;100236.59;102963;1259;138489;-74
2023/12/06 05:43:17;;;;;;;52.60;29.10;;;;;;;-3.80;86.51;100239.02;102273;1261;1002948;-71
2023/12/06 05:45:44;;;;;;;50.80;28.50;;;;;;;-3.80;86.76;100246.31;102884;1256;141870;-69
2023/12/06 05:48:11;;;;;;;46.80;26.60;;;;;;;-3.80;87.02;100245.65;102990;1256;111902;-71
2023/12/06 05:50:38;;;;;;;49.80;28.10;;;;;;;-3.81;86.86;100246.14;102869;1262;106915;-72
2023/12/06 05:53:05;;;;;;;48.90;27.20;;;;;;;-3.83;86.92;100247.77;102949;1256;138672;-69
2023/12/06 05:55:31;;;;;;;47.50;26.90;;;;;;;-3.85;87.15;100250.30;103029;1256;108403;-72
2023/12/06 05:57:58;;;;;;;53.30;27.10;;;;;;;-3.85;86.96;100247.23;101483;1262;1003825;-71
2023/12/06 06:00:25;;;;;;;50.70;28.40;;;;;;;-3.83;87.14;100243.36;102159;1262;1003233;-72
2023/12/06 06:02:53;;;;;;;50.80;28.50;;;;;;;-3.80;87.12;100240.55;101562;1256;1015777;-72
2023/12/06 06:05:19;;;;;;;51.70;29.30;;;;;;;-3.76;87.07;100247.65;102996;1260;137990;-72
2023/12/06 06:07:47;;;;;;;55.30;30.90;;;;;;;-3.73;87.42;100250.61;103059;1256;107341;-73
2023/12/06 06:10:13;;;;;;;57.60;30.60;;;;;;;-3.74;86.87;100256.17;102974;1256;139680;-72
2023/12/06 06:12:41;;;;;;;51.70;29.30;;;;;;;-3.79;87.25;100259.77;102228;1260;1002880;-72
2023/12/06 06:15:10;;;;;;;53.60;30.30;;;;;;;-3.78;87.12;100262.70;102908;1262;139464;-73
2023/12/06 06:17:36;;;;;;;50.40;28.60;;;;;;;-3.76;87.11;100262.94;103194;1256;98333;-73
2023/12/06 06:20:05;;;;;;;48.90;27.60;;;;;;;-3.75;87.24;100268.39;103040;1259;107685;-73
2023/12/06 06:22:32;;;;;;;49.00;28.00;;;;;;;-3.71;87.75;100273.41;102157;1260;1002996;-73
2023/12/06 06:24:59;;;;;;;49.50;29.20;;;;;;;-3.64;87.53;100272.72;103026;1262;110785;-72
2023/12/06 06:27:26;;;;;;;55.80;30.50;;;;;;;-3.58;87.18;100272.54;102928;1262;138180;-72
2023/12/06 06:29:53;;;;;;;59.50;32.00;;;;;;;-3.52;87.22;100268.61;103068;1257;97817;-72
2023/12/06 06:32:20;;;;;;;57.90;31.90;;;;;;;-3.48;87.17;100270.75;103115;1256;107863;-72
2023/12/06 06:34:47;;;;;;;56.20;30.60;;;;;;;-3.47;87.15;100264.84;102836;1262;138813;-72
2023/12/06 06:37:15;;;;;;;56.90;30.80;;;;;;;-3.43;86.98;100264.92;102982;1256;111053;-73
2023/12/06 06:39:43;;;;;;;49.60;28.20;;;;;;;-3.41;87.10;100257.48;102975;1256;138853;-72
2023/12/06 06:42:11;;;;;;;48.90;29.00;;;;;;;-3.36;86.74;100263.73;102344;1256;1003148;-71
2023/12/06 06:44:37;;;;;;;54.60;30.90;;;;;;;-3.34;86.72;100265.84;103100;1260;107419;-72
2023/12/06 06:47:21;;;;;;;52.90;31.90;;;;;;;-3.31;86.55;100268.27;102940;1260;137819;-74
2023/12/06 06:49:48;;;;;;;55.90;31.80;;;;;;;-3.31;86.52;100272.17;103139;1260;111287;-72
2023/12/06 06:52:15;;;;;;;54.30;30.90;;;;;;;-3.29;86.69;100272.56;102878;1256;137969;-71
2023/12/06 06:54:42;;;;;;;52.80;30.60;;;;;;;-3.30;86.52;100281.38;102345;1256;1002954;-73
2023/12/06 06:57:09;;;;;;;51.30;28.50;;;;;;;-3.31;86.47;100275.08;102882;1260;141277;-71
2023/12/06 06:59:36;;;;;;;48.70;28.10;;;;;;;-3.29;86.51;100282.09;103012;1257;97784;-73
2023/12/06 07:02:03;;;;;;;47.90;26.60;;;;;;;-3.29;86.84;100280.73;102980;1258;111793;-73
2023/12/06 07:04:31;;;;;;;48.30;28.90;;;;;;;-3.26;86.63;100283.54;102172;1257;1003693;-73
2023/12/06 07:06:58;;;;;;;52.60;29.70;;;;;;;-3.23;86.46;100285.65;102319;1259;1002864;-73
2023/12/06 07:09:26;;;;;;;54.20;32.20;;;;;;;-3.20;86.42;100286.77;103058;1258;139992;-73
2023/12/06 07:11:53;;;;;;;49.60;30.70;;;;;;;-3.16;86.45;100284.98;103067;1256;98618;-74
2023/12/06 07:14:20;;;;;;;50.50;29.90;;;;;;;-3.17;86.20;100283.27;103150;1260;111340;-73
2023/12/06 07:16:47;;;;;;;50.10;27.90;;;;;;;-3.14;86.04;100285.69;103004;1257;139377;-71
2023/12/06 07:19:15;;;;;;;48.70;29.50;;;;;;;-3.11;86.32;100284.05;103088;1259;97697;-70
2023/12/06 07:21:42;;;;;;;47.70;27.50;;;;;;;-3.09;86.07;100285.81;103001;1258;138674;-71
2023/12/06 07:24:09;;;;;;;49.90;30.10;;;;;;;-3.00;86.14;100286.20;102358;1257;1003786;-71
2023/12/06 07:26:36;;;;;;;54.70;31.30;;;;;;;-2.93;86.16;100282.42;101592;1259;1003669;-71
2023/12/06 07:29:04;;;;;;;59.10;32.60;;;;;;;-2.85;86.02;100279.05;103527;1260;138222;-71
2023/12/06 07:31:32;;;;;;;54.80;32.80;;;;;;;-2.83;85.72;100275.19;102827;1256;138132;-70
2023/12/06 07:33:59;;;;;;;56.10;31.10;;;;;;;-2.82;85.69;100278.42;101617;1260;1003618;-71
2023/12/06 07:36:39;;;;;;;56.90;32.10;;;;;;;-2.82;85.59;100279.96;102295;1258;1003200;-71
2023/12/06 07:39:07;;;;;;;54.00;30.30;;;;;;;-2.84;85.06;100280.45;103132;1256;111222;-70
2023/12/06 07:41:34;;;;;;;49.30;28.70;;;;;;;-2.84;85.28;100283.33;103066;1260;106632;-70
2023/12/06 07:44:01;;;;;;;51.40;28.90;;;;;;;-2.81;85.38;100283.90;102995;1259;138666;-71
2023/12/06 07:46:28;;;;;;;49.10;28.90;;;;;;;-2.76;85.45;100287.73;103119;1260;107686;-70
2023/12/06 07:48:55;;;;;;;45.50;28.60;;;;;;;-2.73;84.98;100292.73;102857;1256;139055;-70
2023/12/06 07:51:22;;;;;;;50.30;29.30;;;;;;;-2.75;84.69;100289.63;103079;1261;110650;-70
2023/12/06 07:53:51;;;;;;;49.90;27.80;;;;;;;-2.73;84.76;100291.05;103070;1254;107765;-70
2023/12/06 07:56:18;;;;;;;49.60;29.40;;;;;;;-2.74;84.19;100287.95;102964;1256;138879;-70
2023/12/06 07:58:45;;;;;;;58.10;32.00;;;;;;;-2.72;84.41;100288.84;103028;1261;108899;-70
2023/12/06 08:01:12;;;;;;;56.80;32.40;;;;;;;-2.71;84.48;100287.68;103007;1259;139700;-69
2023/12/06 08:03:39;;;;;;;53.50;31.20;;;;;;;-2.72;84.37;100291.05;103047;1256;110758;-70
2023/12/06 08:06:07;;;;;;;54.20;31.50;;;;;;;-2.74;84.75;100291.35;102332;1257;1002665;-70
2023/12/06 08:08:35;;;;;;;52.80;31.00;;;;;;;-2.79;84.70;100290.23;102954;1257;138099;-71
2023/12/06 08:11:04;;;;;;;53.90;30.50;;;;;;;-2.79;84.84;100291.09;103086;1260;106319;-70
2023/12/06 08:13:31;;;;;;;50.80;30.20;;;;;;;-2.78;84.97;100299.63;102974;1269;139156;-69
2023/12/06 08:15:58;;;;;;;51.30;27.90;;;;;;;-2.76;84.86;100297.45;103064;1260;111290;-69
2023/12/06 08:18:25;;;;;;;51.90;29.20;;;;;;;-2.72;84.54;100298.21;102300;1256;1003242;-70
2023/12/06 08:20:53;;;;;;;49.30;30.50;;;;;;;-2.69;84.34;100299.65;102969;1259;138501;-70
2023/12/06 08:23:21;;;;;;;55.70;31.30;;;;;;;-2.68;84.48;100292.02;102936;1254;107361;-69
2023/12/06 08:25:49;;;;;;;54.60;32.60;;;;;;;-2.63;84.35;100302.67;102473;1260;1002687;-70
2023/12/06 08:28:16;;;;;;;57.40;32.10;;;;;;;-2.64;83.93;100304.02;103114;1261;110706;-69
2023/12/06 08:30:43;;;;;;;54.00;32.30;;;;;;;-2.68;83.94;100304.77;101607;1260;1003509;-70
2023/12/06 08:33:11;;;;;;;52.20;30.10;;;;;;;-2.72;84.22;100296.66;103097;1257;97668;-69
2023/12/06 08:35:39;;;;;;;51.00;29.10;;;;;;;-2.69;84.18;100299.64;103495;1261;107596;-70
2023/12/06 08:38:06;;;;;;;51.90;30.00;;;;;;;-2.67;83.94;100307.71;102960;1268;138785;-70
2023/12/06 08:40:34;;;;;;;49.70;29.10;;;;;;;-2.63;84.32;100308.11;102344;1260;1002732;-69
2023/12/06 08:43:01;;;;;;;57.20;31.90;;;;;;;-2.58;83.95;100311.29;102247;1257;1003529;-71
2023/12/06 08:45:28;;;;;;;56.80;31.10;;;;;;;-2.57;83.81;100310.11;103185;1260;97806;-72
2023/12/06 08:47:55;;;;;;;59.00;34.00;;;;;;;-2.59;83.25;100315.02;103148;1260;107136;-70
2023/12/06 08:50:22;;;;;;;59.00;34.20;;;;;;;-2.62;83.41;100321.26;103000;1256;139615;-70
2023/12/06 08:52:49;;;;;;;57.60;34.40;;;;;;;-2.63;83.77;100320.55;103035;1264;109745;-69
2023/12/06 08:55:16;;;;;;;52.40;31.30;;;;;;;-2.65;83.80;100317.79;102961;1260;138144;-71
2023/12/06 08:57:43;;;;;;;56.80;32.50;;;;;;;-2.65;83.68;100324.77;102363;1259;1002871;-70
2023/12/06 09:00:12;;;;;;;53.50;31.40;;;;;;;-2.65;83.50;100317.27;103099;1257;107634;-70
2023/12/06 09:02:40;;;;;;;52.80;30.80;;;;;;;-2.66;83.66;100313.17;102918;1257;141354;-71
2023/12/06 09:05:11;;;;;;;55.30;31.70;;;;;;;-2.61;83.76;100313.27;103091;1257;111373;-70
2023/12/06 09:07:38;;;;;;;57.80;34.10;;;;;;;-2.61;83.43;100313.27;102195;1260;1002876;-69
2023/12/06 09:10:06;;;;;;;58.40;34.40;;;;;;;-2.66;83.44;100313.50;102978;1260;98454;-69
2023/12/06 09:12:33;;;;;;;64.20;34.90;;;;;;;-2.68;83.20;100311.40;103052;1262;108010;-69
2023/12/06 09:15:00;;;;;;;61.60;34.80;;;;;;;-2.75;83.05;100315.33;102262;1261;1003733;-70
2023/12/06 09:17:28;;;;;;;61.40;33.40;;;;;;;-2.82;83.03;100324.55;102269;1261;1003594;-70
2023/12/06 09:19:55;;;;;;;54.80;31.10;;;;;;;-2.85;83.60;100329.92;102999;1260;140626;-70
2023/12/06 09:22:22;;;;;;;53.60;31.00;;;;;;;-2.89;83.35;100329.14;103007;1257;97699;-69
2023/12/06 09:24:49;;;;;;;52.90;30.00;;;;;;;-2.90;83.55;100325.54;102885;1260;138680;-70
2023/12/06 09:27:16;;;;;;;55.10;32.10;;;;;;;-2.86;83.32;100323.27;103064;1260;97706;-70
2023/12/06 09:29:45;;;;;;;58.10;32.40;;;;;;;-2.83;83.38;100312.95;102229;1264;1003250;-72
2023/12/06 09:32:12;;;;;;;58.40;34.70;;;;;;;-2.86;83.27;100316.11;102179;1262;1003141;-69
2023/12/06 09:34:40;;;;;;;65.20;36.40;;;;;;;-2.93;83.51;100314.92;103120;1256;97814;-69
2023/12/06 09:37:14;;;;;;;62.70;35.60;;;;;;;-2.97;83.41;100321.98;102930;1258;138156;-68
2023/12/06 09:39:41;;;;;;;61.70;34.00;;;;;;;-3.00;83.93;100321.55;103050;1263;97815;-68
2023/12/06 09:42:08;;;;;;;59.40;32.70;;;;;;;-3.01;83.82;100321.55;103050;1260;111462;-69
2023/12/06 09:44:37;;;;;;;63.90;33.20;;;;;;;-3.01;83.95;100322.23;102857;1260;139276;-72
2023/12/06 09:47:05;;;;;;;62.70;35.00;;;;;;;-2.98;83.73;100322.11;102994;1257;97810;-69
2023/12/06 09:49:32;;;;;;;57.40;32.40;;;;;;;-3.00;83.68;100317.65;102963;1258;138285;-70
2023/12/06 09:52:08;;;;;;;60.00;34.10;;;;;;;-3.01;83.60;100321.39;103039;1260;97910;-70
2023/12/06 09:54:39;;;;;;;67.40;36.00;;;;;;;-3.02;83.45;100328.34;102938;1260;125593;-71
2023/12/06 09:57:06;;;;;;;68.00;37.00;;;;;;;-3.09;83.45;100326.45;102962;1257;137835;-70
2023/12/06 09:59:33;;;;;;;61.90;34.60;;;;;;;-3.22;83.46;100329.56;102908;1271;97808;-68
2023/12/06 10:02:00;;;;;;;65.30;34.80;;;;;;;-3.31;83.76;100323.70;102189;1260;1003396;-70
2023/12/06 10:04:28;;;;;;;65.80;32.50;;;;;;;-3.39;83.87;100323.02;103034;1267;97913;-68
2023/12/06 10:06:55;;;;;;;60.40;33.00;;;;;;;-3.43;83.91;100324.60;102931;1254;139660;-69
2023/12/06 10:09:21;;;;;;;60.30;32.50;;;;;;;-3.43;84.18;100320.85;103090;1260;106062;-69
2023/12/06 10:11:49;;;;;;;64.90;34.90;;;;;;;-3.44;84.08;100323.52;103130;1257;98802;-68
2023/12/06 10:14:20;;;;;;;64.10;35.10;;;;;;;-3.48;84.14;100320.56;103062;1258;138953;-68
2023/12/06 10:16:47;;;;;;;66.00;36.40;;;;;;;-3.48;84.11;100322.59;102402;1256;1002575;-69
2023/12/06 10:19:19;;;;;;;59.50;32.60;;;;;;;-3.52;84.42;100329.46;103035;1257;138956;-68
2023/12/06 10:21:47;;;;;;;64.90;33.80;;;;;;;-3.51;84.40;100325.41;102300;1257;1003592;-68
2023/12/06 10:24:14;;;;;;;56.80;30.20;;;;;;;-3.43;84.66;100321.88;103151;1257;98314;-68
2023/12/06 10:26:41;;;;;;;54.40;29.40;;;;;;;-3.34;84.55;100321.77;102965;1260;141232;-69
2023/12/06 10:29:08;;;;;;;60.00;33.40;;;;;;;-3.28;84.05;100312.73;102377;1260;1003081;-68
2023/12/06 10:31:45;;;;;;;59.60;32.30;;;;;;;-3.19;84.05;100308.88;102222;1260;1003728;-69
2023/12/06 10:34:12;;;;;;;62.40;34.60;;;;;;;-3.13;83.84;100304.60;102332;1260;1002734;-69
2023/12/06 10:36:40;;;;;;;66.80;35.30;;;;;;;-3.10;83.59;100308.90;103148;1258;97794;-70
2023/12/06 10:39:11;;;;;;;63.40;35.70;;;;;;;-3.09;83.46;100305.86;102993;1260;138087;-69
2023/12/06 10:41:43;;;;;;;55.20;30.80;;;;;;;-3.11;83.22;100304.13;102912;1261;97809;-69
2023/12/06 10:44:10;;;;;;;55.70;30.90;;;;;;;-3.12;83.40;100305.63;102795;1259;138652;-68
2023/12/06 10:46:38;;;;;;;53.00;29.90;;;;;;;-3.10;83.32;100302.29;102939;1258;107313;-69
2023/12/06 10:49:06;;;;;;;57.30;32.40;;;;;;;-3.06;83.21;100299.64;101960;1260;1003559;-69
2023/12/06 10:51:35;;;;;;;57.20;32.20;;;;;;;-3.01;83.23;100303.34;102216;1262;1003516;-69
2023/12/06 10:54:04;;;;;;;56.70;31.70;;;;;;;-3.01;82.83;100298.94;103033;1257;97711;-69